Time;durP1;ratioP1;P1;durP2;ratioP2;P2;SDS_P1;SDS_P2;PMS_P1;PMS_P2;Temp;Humidity;BMP_temperature;BMP_pressure;BME280_temperature;BME280_humidity;BME280_pressure;Samples;Min_cycle;Max_cycle;Signal;HPM_P1;HPM_P2
2024/03/02 00:02:13;;;;;;;13.00;12.60;;;;;;;;;;5021014;28;20496;-72
2024/03/02 00:04:40;;;;;;;13.27;12.87;;;;;;;;;;5022332;28;20565;-72
2024/03/02 00:07:16;;;;;;;13.03;12.63;;;;;;;;;;5020540;28;20950;-71
2024/03/02 00:09:44;;;;;;;13.27;12.87;;;;;;;;;;5022407;28;20470;-72
2024/03/02 00:12:13;;;;;;;12.93;12.53;;;;;;;;;;5027450;28;20519;-72
2024/03/02 00:14:42;;;;;;;12.83;12.50;;;;;;;;;;5024914;28;20461;-72
2024/03/02 00:17:20;;;;;;;13.90;13.50;;;;;;;;;;5027711;28;20473;-72
2024/03/02 00:19:47;;;;;;;13.37;12.97;;;;;;;;;;5022432;28;20461;-72
2024/03/02 00:22:14;;;;;;;13.07;12.67;;;;;;;;;;5026541;28;20462;-71
2024/03/02 00:24:41;;;;;;;12.87;12.47;;;;;;;;;;5022270;28;20998;-72
2024/03/02 00:27:11;;;;;;;12.60;12.30;;;;;;;;;;5028396;28;20822;-72
2024/03/02 00:29:38;;;;;;;13.57;13.17;;;;;;;;;;5024729;28;20511;-72
2024/03/02 00:32:09;;;;;;;13.27;12.87;;;;;;;;;;5020551;28;20465;-73
2024/03/02 00:34:36;;;;;;;13.87;13.47;;;;;;;;;;5028178;28;20544;-72
2024/03/02 00:37:04;;;;;;;13.10;12.70;;;;;;;;;;5027807;28;20501;-72
2024/03/02 00:39:31;;;;;;;13.50;13.10;;;;;;;;;;5021345;28;20467;-72
2024/03/02 00:41:58;;;;;;;12.73;12.43;;;;;;;;;;5027353;28;20464;-72
2024/03/02 00:44:29;;;;;;;13.07;12.67;;;;;;;;;;5020402;28;20530;-72
2024/03/02 00:46:56;;;;;;;12.60;12.30;;;;;;;;;;5025169;28;20465;-72
2024/03/02 00:49:26;;;;;;;13.13;12.73;;;;;;;;;;5028294;28;20958;-72
2024/03/02 00:51:54;;;;;;;12.53;12.23;;;;;;;;;;5024905;28;20856;-72
2024/03/02 00:54:23;;;;;;;13.00;12.60;;;;;;;;;;5019473;28;20456;-73
2024/03/02 00:56:50;;;;;;;12.47;12.17;;;;;;;;;;5013529;28;21759;-72
2024/03/02 00:59:17;;;;;;;13.47;13.07;;;;;;;;;;4993048;28;20457;-72
2024/03/02 01:01:45;;;;;;;12.80;12.50;;;;;;;;;;4992312;28;20490;-72
2024/03/02 01:04:14;;;;;;;13.10;12.70;;;;;;;;;;4993113;28;21156;-72
2024/03/02 01:06:42;;;;;;;12.43;12.13;;;;;;;;;;4992167;28;20476;-72
2024/03/02 01:09:09;;;;;;;12.60;12.30;;;;;;;;;;4992845;28;20473;-72
2024/03/02 01:11:36;;;;;;;13.17;12.77;;;;;;;;;;4992935;28;20456;-72
2024/03/02 01:14:04;;;;;;;13.00;12.60;;;;;;;;;;4991265;28;20477;-73
2024/03/02 01:16:31;;;;;;;13.13;12.73;;;;;;;;;;4994312;28;20642;-72
2024/03/02 01:18:58;;;;;;;13.27;12.87;;;;;;;;;;4992654;28;20566;-72
2024/03/02 01:21:25;;;;;;;13.20;12.80;;;;;;;;;;4992652;28;20994;-72
2024/03/02 01:23:54;;;;;;;13.07;12.67;;;;;;;;;;4990721;28;20473;-72
2024/03/02 01:26:21;;;;;;;12.67;12.33;;;;;;;;;;4994222;28;20493;-72
2024/03/02 01:28:48;;;;;;;13.00;12.60;;;;;;;;;;4993409;28;20830;-71
2024/03/02 01:31:15;;;;;;;13.00;12.60;;;;;;;;;;4993559;28;20577;-72
2024/03/02 01:33:42;;;;;;;13.00;12.60;;;;;;;;;;4994072;28;20475;-72
2024/03/02 01:36:10;;;;;;;12.80;12.47;;;;;;;;;;4993090;28;20493;-72
2024/03/02 01:38:37;;;;;;;13.20;12.80;;;;;;;;;;4994197;28;20860;-72
2024/03/02 01:41:05;;;;;;;12.40;12.10;;;;;;;;;;4993496;28;21141;-72
2024/03/02 01:43:33;;;;;;;13.10;12.70;;;;;;;;;;4993379;28;20904;-72
2024/03/02 01:46:00;;;;;;;12.57;12.27;;;;;;;;;;4994240;28;20982;-72
2024/03/02 01:48:27;;;;;;;13.10;12.70;;;;;;;;;;4993258;28;20470;-72
2024/03/02 01:50:54;;;;;;;13.20;12.80;;;;;;;;;;4993485;28;20479;-72
2024/03/02 01:53:21;;;;;;;12.90;12.50;;;;;;;;;;4992129;28;21083;-71
2024/03/02 01:55:49;;;;;;;12.60;12.30;;;;;;;;;;4991748;28;20936;-72
2024/03/02 01:58:17;;;;;;;13.17;12.77;;;;;;;;;;5024314;28;20911;-72
2024/03/02 02:00:45;;;;;;;13.00;12.60;;;;;;;;;;5021892;28;21163;-72
2024/03/02 02:03:12;;;;;;;12.30;12.00;;;;;;;;;;5024515;28;20466;-72
2024/03/02 02:05:40;;;;;;;12.87;12.53;;;;;;;;;;5021206;28;20469;-72
2024/03/02 02:08:07;;;;;;;12.83;12.50;;;;;;;;;;5026749;28;20465;-72
2024/03/02 02:10:34;;;;;;;13.20;12.80;;;;;;;;;;5022654;28;20480;-72
2024/03/02 02:13:02;;;;;;;13.20;12.80;;;;;;;;;;5024208;28;20955;-72
2024/03/02 02:15:32;;;;;;;13.70;13.30;;;;;;;;;;5027622;28;20450;-72
2024/03/02 02:18:14;;;;;;;12.70;12.40;;;;;;;;;;5022884;28;20504;-72
2024/03/02 02:20:41;;;;;;;12.40;12.10;;;;;;;;;;5024781;28;20453;-72
2024/03/02 02:23:10;;;;;;;12.97;12.60;;;;;;;;;;5025696;28;20545;-72
2024/03/02 02:25:37;;;;;;;12.67;12.37;;;;;;;;;;5027567;28;20469;-72
2024/03/02 02:28:04;;;;;;;12.63;12.33;;;;;;;;;;5024073;28;20497;-73
2024/03/02 02:30:32;;;;;;;12.03;11.73;;;;;;;;;;5018249;28;20994;-72
2024/03/02 02:33:00;;;;;;;12.50;12.20;;;;;;;;;;5027088;28;20457;-72
2024/03/02 02:35:27;;;;;;;12.90;12.60;;;;;;;;;;5027690;28;20958;-72
2024/03/02 02:37:55;;;;;;;12.40;12.10;;;;;;;;;;5022847;28;20467;-72
2024/03/02 02:40:24;;;;;;;12.33;12.03;;;;;;;;;;5030978;28;20536;-72
2024/03/02 02:42:51;;;;;;;11.80;11.50;;;;;;;;;;5023947;28;20474;-71
2024/03/02 02:45:18;;;;;;;11.87;11.57;;;;;;;;;;5018819;28;20548;-72
2024/03/02 02:47:45;;;;;;;11.40;11.10;;;;;;;;;;5026692;28;20493;-71
2024/03/02 02:50:13;;;;;;;10.63;10.43;;;;;;;;;;5030741;28;20545;-71
2024/03/02 02:52:41;;;;;;;10.53;10.33;;;;;;;;;;5026994;28;20498;-72
2024/03/02 02:55:09;;;;;;;10.27;10.07;;;;;;;;;;5026623;28;20461;-72
2024/03/02 02:57:39;;;;;;;10.60;10.40;;;;;;;;;;5029706;28;20507;-72
2024/03/02 03:00:09;;;;;;;10.90;10.63;;;;;;;;;;5024242;28;20541;-72
2024/03/02 03:02:37;;;;;;;10.50;10.30;;;;;;;;;;5030907;28;20485;-72
2024/03/02 03:05:05;;;;;;;11.10;10.80;;;;;;;;;;5029355;28;20861;-72
2024/03/02 03:07:32;;;;;;;11.03;10.73;;;;;;;;;;5027004;28;20464;-72
2024/03/02 03:09:59;;;;;;;10.00;9.80;;;;;;;;;;5030862;28;20467;-72
2024/03/02 03:12:26;;;;;;;10.67;10.47;;;;;;;;;;5022126;28;20461;-72
2024/03/02 03:14:55;;;;;;;10.57;10.37;;;;;;;;;;5020195;28;20560;-72
2024/03/02 03:17:23;;;;;;;11.13;10.83;;;;;;;;;;5029298;28;20497;-72
2024/03/02 03:19:50;;;;;;;10.40;10.20;;;;;;;;;;5028058;28;20466;-72
2024/03/02 03:22:17;;;;;;;10.93;10.70;;;;;;;;;;5028262;28;20912;-72
2024/03/02 03:24:44;;;;;;;11.37;11.07;;;;;;;;;;5030297;28;20461;-72
2024/03/02 03:27:12;;;;;;;10.17;9.97;;;;;;;;;;5026705;28;20859;-72
2024/03/02 03:29:39;;;;;;;10.37;10.17;;;;;;;;;;5024760;28;20473;-72
2024/03/02 03:32:08;;;;;;;10.60;10.40;;;;;;;;;;5023545;28;20465;-71
2024/03/02 03:34:35;;;;;;;10.80;10.60;;;;;;;;;;5029338;28;20553;-72
2024/03/02 03:37:02;;;;;;;11.23;10.93;;;;;;;;;;5029664;28;20497;-73
2024/03/02 03:39:29;;;;;;;10.77;10.57;;;;;;;;;;5030263;28;20533;-72
2024/03/02 03:41:57;;;;;;;11.17;10.87;;;;;;;;;;5022593;28;20466;-72
2024/03/02 03:44:24;;;;;;;10.70;10.50;;;;;;;;;;5030005;28;20457;-73
2024/03/02 03:46:51;;;;;;;11.00;10.70;;;;;;;;;;5021294;28;20461;-71
2024/03/02 03:49:19;;;;;;;11.50;11.20;;;;;;;;;;5028635;28;20461;-73
2024/03/02 03:51:47;;;;;;;11.77;11.47;;;;;;;;;;5026787;28;20454;-72
2024/03/02 03:54:14;;;;;;;11.27;10.97;;;;;;;;;;5025485;28;20472;-72
2024/03/02 03:56:41;;;;;;;10.90;10.63;;;;;;;;;;5029911;28;21012;-72
2024/03/02 03:59:08;;;;;;;10.97;10.67;;;;;;;;;;5023919;28;20462;-72
2024/03/02 04:01:34;;;;;;;10.97;10.67;;;;;;;;;;5029456;28;20495;-72
2024/03/02 04:04:03;;;;;;;11.20;10.90;;;;;;;;;;5022330;28;20501;-72
2024/03/02 04:06:31;;;;;;;10.97;10.67;;;;;;;;;;5025437;28;20461;-72
2024/03/02 04:08:59;;;;;;;10.70;10.50;;;;;;;;;;5029353;28;20467;-72
2024/03/02 04:11:27;;;;;;;10.50;10.30;;;;;;;;;;5019764;28;20545;-73
2024/03/02 04:13:54;;;;;;;11.27;10.97;;;;;;;;;;5026971;28;21134;-72
2024/03/02 04:16:21;;;;;;;11.00;10.70;;;;;;;;;;5028294;28;20477;-72
2024/03/02 04:18:48;;;;;;;11.30;11.00;;;;;;;;;;5025646;28;20500;-72
2024/03/02 04:21:15;;;;;;;11.33;11.03;;;;;;;;;;5020770;28;20473;-72
2024/03/02 04:23:44;;;;;;;11.13;10.83;;;;;;;;;;5027861;28;20971;-71
2024/03/02 04:26:11;;;;;;;11.13;10.83;;;;;;;;;;5029097;28;20454;-72
2024/03/02 04:28:38;;;;;;;10.50;10.30;;;;;;;;;;5025304;28;20861;-73
2024/03/02 04:31:05;;;;;;;11.23;10.93;;;;;;;;;;5022705;28;20474;-72
2024/03/02 04:33:32;;;;;;;11.10;10.80;;;;;;;;;;5034691;28;20453;-72
2024/03/02 04:35:59;;;;;;;11.77;11.47;;;;;;;;;;5023967;28;20458;-73
2024/03/02 04:38:28;;;;;;;11.60;11.30;;;;;;;;;;5024722;28;20468;-71
2024/03/02 04:40:57;;;;;;;11.53;11.23;;;;;;;;;;5029225;28;20461;-72
2024/03/02 04:43:24;;;;;;;11.43;11.13;;;;;;;;;;5029120;28;20796;-72
2024/03/02 04:45:51;;;;;;;11.63;11.33;;;;;;;;;;5027107;28;20466;-73
2024/03/02 04:48:19;;;;;;;11.80;11.50;;;;;;;;;;5019658;28;20468;-73
2024/03/02 04:50:47;;;;;;;11.80;11.50;;;;;;;;;;5022518;28;20548;-72
2024/03/02 04:53:14;;;;;;;11.93;11.63;;;;;;;;;;5027513;28;20526;-73
2024/03/02 04:56:09;;;;;;;12.00;11.70;;;;;;;;;;5028750;28;20470;-72
2024/03/02 04:58:38;;;;;;;12.27;11.97;;;;;;;;;;5021596;28;20465;-72
2024/03/02 05:01:06;;;;;;;12.13;11.83;;;;;;;;;;5025013;28;20481;-73
2024/03/02 05:03:34;;;;;;;12.33;12.03;;;;;;;;;;5015056;28;20474;-72
2024/03/02 05:06:02;;;;;;;12.40;12.10;;;;;;;;;;5014779;28;20486;-73
2024/03/02 05:08:29;;;;;;;12.50;12.20;;;;;;;;;;5021380;28;20547;-73
2024/03/02 05:11:28;;;;;;;12.60;12.30;;;;;;;;;;5021025;28;20473;-72
2024/03/02 05:13:44;;;;;;;12.63;12.30;;;;;;;;;;5022789;28;20948;-72
2024/03/02 05:16:11;;;;;;;12.65;12.30;;;;;;;;;;5024848;28;20876;-73
2024/03/02 05:18:39;;;;;;;12.50;12.20;;;;;;;;;;5026336;28;20501;-72
2024/03/02 05:21:06;;;;;;;12.77;12.37;;;;;;;;;;5017906;28;20469;-72
2024/03/02 05:23:33;;;;;;;13.10;12.70;;;;;;;;;;5026283;28;20519;-72
2024/03/02 05:26:00;;;;;;;13.20;12.80;;;;;;;;;;5023878;28;20462;-73
2024/03/02 05:28:27;;;;;;;13.00;12.60;;;;;;;;;;5022004;28;20450;-73
2024/03/02 05:30:56;;;;;;;13.53;13.13;;;;;;;;;;5017580;28;20484;-72
2024/03/02 05:33:23;;;;;;;12.80;12.40;;;;;;;;;;5017501;28;20469;-72
2024/03/02 05:35:50;;;;;;;12.37;12.07;;;;;;;;;;5014913;28;20777;-72
2024/03/02 05:38:17;;;;;;;12.43;12.13;;;;;;;;;;5017337;28;20496;-72
2024/03/02 05:40:45;;;;;;;12.60;12.30;;;;;;;;;;5021136;28;20480;-72
2024/03/02 05:43:12;;;;;;;13.10;12.70;;;;;;;;;;5018090;28;20494;-72
2024/03/02 05:45:39;;;;;;;13.03;12.63;;;;;;;;;;5024739;28;20505;-72
2024/03/02 05:48:09;;;;;;;12.83;12.43;;;;;;;;;;5024102;28;20467;-73
2024/03/02 05:50:36;;;;;;;12.83;12.43;;;;;;;;;;5018384;28;21152;-72
2024/03/02 05:53:04;;;;;;;12.80;12.40;;;;;;;;;;5023636;28;20488;-72
2024/03/02 05:55:31;;;;;;;13.03;12.63;;;;;;;;;;5019636;28;20474;-72
2024/03/02 05:58:15;;;;;;;13.17;12.77;;;;;;;;;;5021213;28;20489;-72
2024/03/02 06:00:42;;;;;;;12.50;12.20;;;;;;;;;;5024103;28;20466;-72
2024/03/02 06:03:11;;;;;;;13.00;12.60;;;;;;;;;;5024798;28;20457;-72
2024/03/02 06:05:38;;;;;;;12.90;12.50;;;;;;;;;;5017686;28;20466;-72
2024/03/02 06:08:06;;;;;;;12.97;12.57;;;;;;;;;;5019456;28;20836;-72
2024/03/02 06:10:33;;;;;;;13.00;12.60;;;;;;;;;;5026009;28;20460;-72
2024/03/02 06:13:00;;;;;;;12.87;12.47;;;;;;;;;;5029503;28;20490;-72
2024/03/02 06:15:27;;;;;;;12.87;12.47;;;;;;;;;;5022595;28;20467;-73
2024/03/02 06:17:54;;;;;;;12.67;12.27;;;;;;;;;;5024162;28;20685;-72
2024/03/02 06:20:22;;;;;;;13.20;12.80;;;;;;;;;;5022999;28;20465;-72
2024/03/02 06:22:50;;;;;;;13.00;12.60;;;;;;;;;;5023517;28;20471;-72
2024/03/02 06:25:17;;;;;;;12.80;12.40;;;;;;;;;;5019642;28;20506;-72
2024/03/02 06:27:44;;;;;;;12.83;12.43;;;;;;;;;;5016302;28;20465;-72
2024/03/02 06:30:12;;;;;;;12.83;12.43;;;;;;;;;;5026398;28;21030;-72
2024/03/02 06:32:39;;;;;;;12.87;12.47;;;;;;;;;;5026222;28;20822;-72
2024/03/02 06:35:09;;;;;;;12.57;12.23;;;;;;;;;;5026734;28;20815;-72
2024/03/02 06:37:39;;;;;;;12.93;12.53;;;;;;;;;;5017223;28;20492;-72
2024/03/02 06:40:07;;;;;;;12.43;12.13;;;;;;;;;;5028922;28;20469;-72
2024/03/02 06:42:35;;;;;;;12.43;12.13;;;;;;;;;;5028226;28;20586;-73
2024/03/02 06:45:02;;;;;;;12.47;12.17;;;;;;;;;;5025070;28;20623;-72
2024/03/02 06:47:29;;;;;;;12.87;12.47;;;;;;;;;;5019486;28;20503;-72
2024/03/02 06:49:57;;;;;;;12.20;11.90;;;;;;;;;;5021637;28;20456;-73
2024/03/02 06:52:24;;;;;;;12.40;12.10;;;;;;;;;;5018784;28;20485;-73
2024/03/02 06:54:52;;;;;;;12.77;12.37;;;;;;;;;;5021060;28;20988;-72
2024/03/02 06:57:20;;;;;;;12.70;12.30;;;;;;;;;;5027991;28;20499;-72
2024/03/02 06:59:50;;;;;;;12.47;12.17;;;;;;;;;;5023804;28;20466;-72
2024/03/02 07:02:17;;;;;;;12.43;12.13;;;;;;;;;;5022895;28;21115;-72
2024/03/02 07:04:45;;;;;;;13.33;12.93;;;;;;;;;;5029087;28;20553;-73
2024/03/02 07:07:12;;;;;;;13.53;13.13;;;;;;;;;;5019572;28;20479;-72
2024/03/02 07:09:39;;;;;;;13.17;12.77;;;;;;;;;;5021651;28;20472;-72
2024/03/02 07:12:08;;;;;;;12.73;12.33;;;;;;;;;;5024520;28;20473;-72
2024/03/02 07:17:20;;;;;;;12.13;11.83;;;;;;;;;;5028478;28;20482;-72
2024/03/02 07:19:48;;;;;;;12.90;12.50;;;;;;;;;;5022350;28;20576;-72
2024/03/02 07:22:15;;;;;;;12.60;12.30;;;;;;;;;;5021457;28;20465;-72
2024/03/02 07:24:42;;;;;;;12.70;12.30;;;;;;;;;;5019108;28;20491;-73
2024/03/02 07:27:12;;;;;;;12.80;12.40;;;;;;;;;;5028007;28;20567;-71
2024/03/02 07:29:39;;;;;;;12.50;12.20;;;;;;;;;;5024970;28;21050;-72
2024/03/02 07:32:07;;;;;;;12.47;12.17;;;;;;;;;;5029062;28;20707;-72
2024/03/02 07:34:34;;;;;;;12.90;12.50;;;;;;;;;;5028795;28;20971;-72
2024/03/02 07:37:01;;;;;;;12.80;12.40;;;;;;;;;;5024884;28;20480;-72
2024/03/02 07:39:29;;;;;;;12.60;12.27;;;;;;;;;;5020784;28;20461;-72
2024/03/02 07:41:56;;;;;;;12.63;12.23;;;;;;;;;;5027903;28;20919;-73
2024/03/02 07:44:25;;;;;;;13.17;12.77;;;;;;;;;;5021849;28;20483;-73
2024/03/02 07:46:52;;;;;;;12.97;12.57;;;;;;;;;;5028304;28;20619;-72
2024/03/02 07:49:20;;;;;;;13.00;12.60;;;;;;;;;;5019738;28;20467;-72
2024/03/02 07:51:47;;;;;;;12.93;12.53;;;;;;;;;;5016699;28;20463;-73
2024/03/02 07:54:14;;;;;;;12.50;12.10;;;;;;;;;;5022380;28;20448;-73
2024/03/02 07:56:41;;;;;;;12.90;12.50;;;;;;;;;;5024606;28;20890;-72
2024/03/02 07:59:08;;;;;;;12.90;12.50;;;;;;;;;;5023709;28;20490;-72
2024/03/02 08:01:37;;;;;;;13.20;12.80;;;;;;;;;;5025764;28;20502;-72
2024/03/02 08:04:04;;;;;;;13.20;12.80;;;;;;;;;;5018354;28;20462;-72
2024/03/02 08:06:31;;;;;;;12.97;12.57;;;;;;;;;;5026030;28;20484;-72
2024/03/02 08:09:00;;;;;;;13.20;12.80;;;;;;;;;;5023457;28;20464;-72
2024/03/02 08:11:28;;;;;;;13.30;12.90;;;;;;;;;;5026856;28;20547;-73
2024/03/02 08:13:56;;;;;;;13.60;13.20;;;;;;;;;;5023669;28;20904;-72
2024/03/02 08:16:25;;;;;;;12.90;12.50;;;;;;;;;;5020095;28;20646;-72
2024/03/02 08:18:53;;;;;;;13.10;12.70;;;;;;;;;;5020261;28;20923;-72
2024/03/02 08:21:20;;;;;;;13.83;13.33;;;;;;;;;;5019256;28;20453;-72
2024/03/02 08:23:48;;;;;;;13.37;12.97;;;;;;;;;;5018689;28;20477;-72
2024/03/02 08:26:15;;;;;;;14.13;13.63;;;;;;;;;;5014898;28;20502;-73
2024/03/02 08:28:42;;;;;;;14.30;13.80;;;;;;;;;;5019331;28;21090;-72
2024/03/02 08:31:09;;;;;;;14.33;13.83;;;;;;;;;;5016411;28;20546;-72
2024/03/02 08:33:37;;;;;;;14.00;13.50;;;;;;;;;;5018685;28;20473;-72
2024/03/02 08:36:06;;;;;;;13.93;13.43;;;;;;;;;;5016401;28;20477;-73
2024/03/02 08:38:33;;;;;;;13.63;13.23;;;;;;;;;;5017180;28;20493;-72
2024/03/02 08:41:00;;;;;;;14.00;13.50;;;;;;;;;;5025655;28;20829;-72
2024/03/02 08:43:27;;;;;;;14.23;13.73;;;;;;;;;;5021675;28;20465;-72
2024/03/02 08:45:54;;;;;;;14.10;13.60;;;;;;;;;;5021369;28;20476;-72
2024/03/02 08:48:22;;;;;;;14.17;13.67;;;;;;;;;;5022075;28;20469;-73
2024/03/02 08:50:49;;;;;;;13.77;13.33;;;;;;;;;;5025745;28;20451;-73
2024/03/02 08:53:18;;;;;;;13.33;12.93;;;;;;;;;;5012620;28;20487;-72
2024/03/02 08:55:46;;;;;;;13.93;13.47;;;;;;;;;;5015276;28;20979;-72
2024/03/02 08:58:13;;;;;;;13.80;13.40;;;;;;;;;;5022418;28;20766;-73
2024/03/02 09:00:40;;;;;;;14.10;13.60;;;;;;;;;;5025842;28;21060;-73
2024/03/02 09:03:08;;;;;;;14.33;13.83;;;;;;;;;;5023485;28;21038;-74
2024/03/02 09:05:36;;;;;;;13.73;13.33;;;;;;;;;;5021962;28;20966;-72
2024/03/02 09:08:03;;;;;;;13.50;13.10;;;;;;;;;;5021568;28;20819;-73
2024/03/02 09:10:32;;;;;;;13.77;13.37;;;;;;;;;;5016900;28;20799;-73
2024/03/02 09:13:00;;;;;;;13.83;13.43;;;;;;;;;;5023541;28;20461;-73
2024/03/02 09:15:27;;;;;;;13.80;13.40;;;;;;;;;;5022964;28;20549;-72
2024/03/02 09:17:55;;;;;;;13.57;13.17;;;;;;;;;;5023372;28;20597;-73
2024/03/02 09:20:22;;;;;;;13.23;12.83;;;;;;;;;;5023357;28;20471;-73
2024/03/02 09:22:49;;;;;;;13.33;12.93;;;;;;;;;;5020035;28;20474;-73
2024/03/02 09:25:16;;;;;;;13.33;12.93;;;;;;;;;;5013577;28;20853;-73
2024/03/02 09:27:45;;;;;;;13.40;13.00;;;;;;;;;;5017236;28;20472;-73
2024/03/02 09:30:13;;;;;;;12.60;12.30;;;;;;;;;;5021931;28;20463;-73
2024/03/02 09:32:41;;;;;;;13.30;12.90;;;;;;;;;;5020140;28;20541;-73
2024/03/02 09:35:08;;;;;;;13.30;12.90;;;;;;;;;;5023898;28;20536;-73
2024/03/02 09:37:36;;;;;;;13.77;13.37;;;;;;;;;;5016080;28;20462;-73
2024/03/02 09:40:04;;;;;;;13.77;13.37;;;;;;;;;;5024604;28;20905;-73
2024/03/02 09:42:32;;;;;;;13.00;12.60;;;;;;;;;;5017667;28;20465;-74
2024/03/02 09:45:00;;;;;;;13.63;13.23;;;;;;;;;;5017987;28;20457;-72
2024/03/02 09:47:28;;;;;;;13.03;12.63;;;;;;;;;;5023857;28;20834;-74
2024/03/02 09:49:56;;;;;;;12.90;12.50;;;;;;;;;;5015620;28;20873;-73
2024/03/02 09:52:24;;;;;;;13.27;12.87;;;;;;;;;;5023265;28;20482;-73
2024/03/02 09:54:52;;;;;;;13.37;12.97;;;;;;;;;;5019240;28;20537;-73
2024/03/02 09:57:19;;;;;;;13.10;12.70;;;;;;;;;;5016956;28;20482;-73
2024/03/02 09:59:46;;;;;;;13.23;12.83;;;;;;;;;;5025531;28;20561;-73
2024/03/02 10:02:15;;;;;;;13.30;12.90;;;;;;;;;;5023811;28;20609;-73
2024/03/02 10:04:44;;;;;;;13.47;13.07;;;;;;;;;;5019956;28;20477;-74
2024/03/02 10:07:11;;;;;;;13.00;12.60;;;;;;;;;;5024941;28;20967;-73
2024/03/02 10:09:39;;;;;;;13.20;12.80;;;;;;;;;;5021497;28;20464;-74
2024/03/02 10:12:06;;;;;;;13.40;13.00;;;;;;;;;;5020501;28;20471;-72
2024/03/02 10:14:35;;;;;;;13.40;13.00;;;;;;;;;;5024686;28;20475;-73
2024/03/02 10:17:03;;;;;;;13.20;12.80;;;;;;;;;;5025738;28;20457;-73
2024/03/02 10:19:32;;;;;;;14.00;13.50;;;;;;;;;;5022959;28;20485;-74
2024/03/02 10:22:00;;;;;;;14.73;14.23;;;;;;;;;;5024669;28;21377;-74
2024/03/02 10:24:27;;;;;;;14.70;14.20;;;;;;;;;;5021398;28;20474;-73
2024/03/02 10:26:56;;;;;;;13.73;13.33;;;;;;;;;;5016773;28;20480;-73
2024/03/02 10:29:23;;;;;;;13.70;13.30;;;;;;;;;;5023998;28;20507;-73
2024/03/02 10:31:50;;;;;;;13.97;13.53;;;;;;;;;;5024685;28;20454;-73
2024/03/02 10:34:17;;;;;;;13.83;13.43;;;;;;;;;;5019770;28;20487;-73
2024/03/02 10:36:46;;;;;;;14.00;13.60;;;;;;;;;;5029766;28;20465;-73
2024/03/02 10:39:14;;;;;;;14.40;13.90;;;;;;;;;;5012720;28;20485;-73
2024/03/02 10:41:41;;;;;;;13.90;13.50;;;;;;;;;;5013837;28;20591;-73
2024/03/02 10:44:09;;;;;;;13.90;13.50;;;;;;;;;;5014720;28;20549;-73
2024/03/02 10:46:37;;;;;;;13.80;13.40;;;;;;;;;;5014480;28;20950;-73
2024/03/02 10:49:05;;;;;;;13.80;13.40;;;;;;;;;;5014965;28;20972;-74
2024/03/02 10:51:33;;;;;;;13.97;13.57;;;;;;;;;;5014469;28;20462;-74
2024/03/02 10:54:03;;;;;;;14.00;13.60;;;;;;;;;;5011054;28;20524;-74
2024/03/02 10:56:31;;;;;;;13.90;13.50;;;;;;;;;;5013282;28;20504;-74
2024/03/02 10:59:03;;;;;;;13.80;13.40;;;;;;;;;;5017155;28;20572;-74
2024/03/02 11:01:31;;;;;;;13.93;13.53;;;;;;;;;;5016029;28;20511;-73
2024/03/02 11:03:59;;;;;;;14.53;14.03;;;;;;;;;;5017597;28;20881;-73
2024/03/02 11:06:27;;;;;;;13.87;13.47;;;;;;;;;;5017561;28;20458;-75
2024/03/02 11:08:58;;;;;;;14.70;14.20;;;;;;;;;;5016161;28;20460;-73
2024/03/02 11:11:29;;;;;;;14.73;14.23;;;;;;;;;;5012334;28;20464;-73
2024/03/02 11:13:59;;;;;;;14.00;13.60;;;;;;;;;;5016828;28;21081;-73
2024/03/02 11:16:30;;;;;;;13.80;13.40;;;;;;;;;;5016483;28;20526;-73
2024/03/02 11:18:58;;;;;;;14.80;14.30;;;;;;;;;;5018748;28;20551;-73
2024/03/02 11:21:26;;;;;;;13.83;13.43;;;;;;;;;;5014352;28;20476;-73
2024/03/02 11:23:53;;;;;;;13.80;13.40;;;;;;;;;;5015698;28;20887;-73
2024/03/02 11:26:21;;;;;;;14.20;13.70;;;;;;;;;;5018332;28;20497;-73
2024/03/02 11:28:49;;;;;;;14.50;14.00;;;;;;;;;;5016642;28;21107;-73
2024/03/02 11:31:16;;;;;;;15.10;14.60;;;;;;;;;;5017515;28;20462;-73
2024/03/02 11:33:44;;;;;;;14.60;14.10;;;;;;;;;;5017399;28;20485;-73
2024/03/02 11:36:11;;;;;;;14.97;14.47;;;;;;;;;;5016356;28;20473;-75
2024/03/02 11:38:38;;;;;;;15.30;14.80;;;;;;;;;;5017290;28;20577;-73
2024/03/02 11:41:08;;;;;;;15.10;14.60;;;;;;;;;;5019310;28;20477;-75
2024/03/02 11:43:39;;;;;;;15.57;15.07;;;;;;;;;;5015155;28;20532;-73
2024/03/02 11:46:08;;;;;;;15.43;14.93;;;;;;;;;;5017160;28;20517;-73
2024/03/02 11:48:36;;;;;;;15.50;14.90;;;;;;;;;;5013718;28;20520;-75
2024/03/02 11:51:05;;;;;;;15.57;14.97;;;;;;;;;;5016810;28;20474;-74
2024/03/02 11:53:33;;;;;;;15.73;15.13;;;;;;;;;;5013973;28;21092;-73
2024/03/02 11:56:01;;;;;;;16.20;15.60;;;;;;;;;;5016314;28;20474;-74
2024/03/02 11:58:29;;;;;;;16.10;15.50;;;;;;;;;;5013703;28;20885;-73
2024/03/02 12:00:56;;;;;;;15.70;15.10;;;;;;;;;;5016191;28;20503;-73
2024/03/02 12:03:26;;;;;;;16.00;15.40;;;;;;;;;;5016007;28;20462;-74
2024/03/02 12:05:54;;;;;;;15.67;15.17;;;;;;;;;;5015157;28;20477;-74
2024/03/02 12:08:23;;;;;;;16.33;15.73;;;;;;;;;;5016785;28;20461;-73
2024/03/02 12:11:00;;;;;;;16.77;16.17;;;;;;;;;;5010844;28;20497;-73
2024/03/02 12:13:27;;;;;;;15.90;15.30;;;;;;;;;;5019938;28;20468;-74
2024/03/02 12:15:56;;;;;;;15.60;15.10;;;;;;;;;;5025231;28;20471;-74
2024/03/02 12:18:25;;;;;;;14.87;14.37;;;;;;;;;;5029765;28;20473;-74
2024/03/02 12:20:57;;;;;;;15.07;14.57;;;;;;;;;;5027289;28;20474;-73
2024/03/02 12:23:24;;;;;;;14.90;14.40;;;;;;;;;;5023969;28;20470;-75
2024/03/02 12:25:51;;;;;;;14.77;14.27;;;;;;;;;;5023025;28;21007;-74
2024/03/02 12:28:19;;;;;;;15.80;15.20;;;;;;;;;;5034925;28;20478;-74
2024/03/02 12:30:47;;;;;;;15.07;14.57;;;;;;;;;;5030897;28;20462;-74
2024/03/02 12:33:14;;;;;;;14.80;14.30;;;;;;;;;;5022409;28;20569;-75
2024/03/02 12:35:43;;;;;;;15.00;14.50;;;;;;;;;;5021985;28;21068;-74
2024/03/02 12:38:11;;;;;;;15.50;15.00;;;;;;;;;;5019843;28;20467;-73
2024/03/02 12:40:39;;;;;;;15.27;14.77;;;;;;;;;;5028344;28;20504;-74
2024/03/02 12:43:07;;;;;;;15.17;14.67;;;;;;;;;;5024432;28;20545;-73
2024/03/02 12:45:35;;;;;;;15.37;14.87;;;;;;;;;;5024563;28;20462;-75
2024/03/02 12:48:02;;;;;;;15.87;15.27;;;;;;;;;;5024060;28;20474;-73
2024/03/02 12:50:30;;;;;;;15.13;14.63;;;;;;;;;;5022238;28;20474;-74
2024/03/02 12:52:59;;;;;;;15.30;14.80;;;;;;;;;;5019983;28;20491;-74
2024/03/02 12:55:27;;;;;;;15.60;15.10;;;;;;;;;;5022628;28;20469;-74
2024/03/02 12:57:54;;;;;;;15.20;14.70;;;;;;;;;;5021039;28;20466;-73
2024/03/02 13:00:22;;;;;;;15.57;15.07;;;;;;;;;;5023311;28;20485;-74
2024/03/02 13:02:50;;;;;;;15.37;14.87;;;;;;;;;;5012897;28;20498;-76
2024/03/02 13:05:17;;;;;;;14.80;14.30;;;;;;;;;;5019729;28;20992;-73
2024/03/02 13:07:46;;;;;;;15.20;14.70;;;;;;;;;;5027045;28;20714;-76
2024/03/02 13:10:15;;;;;;;14.60;14.10;;;;;;;;;;5024086;28;20841;-73
2024/03/02 13:12:42;;;;;;;15.90;15.37;;;;;;;;;;5023970;28;20469;-76
2024/03/02 13:15:10;;;;;;;15.90;15.40;;;;;;;;;;5027258;28;20457;-74
2024/03/02 13:17:37;;;;;;;15.50;15.00;;;;;;;;;;5022900;28;20468;-75
2024/03/02 13:20:07;;;;;;;15.20;14.70;;;;;;;;;;5021861;28;20840;-74
2024/03/02 13:22:35;;;;;;;14.70;14.20;;;;;;;;;;5027491;28;20470;-75
2024/03/02 13:25:03;;;;;;;15.20;14.70;;;;;;;;;;5023572;28;21013;-74
2024/03/02 13:27:32;;;;;;;15.00;14.50;;;;;;;;;;5025744;28;20533;-76
2024/03/02 13:29:59;;;;;;;14.60;14.10;;;;;;;;;;5017072;28;20489;-76
2024/03/02 13:32:26;;;;;;;14.60;14.10;;;;;;;;;;5025932;28;20455;-77
2024/03/02 13:34:54;;;;;;;15.20;14.70;;;;;;;;;;5020562;28;20474;-75
2024/03/02 13:37:22;;;;;;;14.97;14.47;;;;;;;;;;5027462;28;21015;-74
2024/03/02 13:39:49;;;;;;;15.00;14.50;;;;;;;;;;5021264;28;20923;-74
2024/03/02 13:42:16;;;;;;;15.40;14.90;;;;;;;;;;5020825;28;20958;-75
2024/03/02 13:44:48;;;;;;;14.97;14.47;;;;;;;;;;5027237;28;20550;-75
2024/03/02 13:47:15;;;;;;;15.07;14.57;;;;;;;;;;5021038;28;20475;-76
2024/03/02 13:49:45;;;;;;;15.47;14.97;;;;;;;;;;5022390;28;20554;-74
2024/03/02 13:52:13;;;;;;;14.90;14.40;;;;;;;;;;5027195;28;20491;-76
2024/03/02 13:54:40;;;;;;;14.93;14.43;;;;;;;;;;5020064;28;20520;-74
2024/03/02 13:57:07;;;;;;;15.93;15.33;;;;;;;;;;5023326;28;20468;-74
2024/03/02 13:59:35;;;;;;;16.00;15.40;;;;;;;;;;5026891;28;20920;-76
2024/03/02 14:02:05;;;;;;;15.63;15.13;;;;;;;;;;5016592;28;20499;-74
2024/03/02 14:04:33;;;;;;;15.30;14.80;;;;;;;;;;5023614;28;20576;-74
2024/03/02 14:07:00;;;;;;;16.10;15.50;;;;;;;;;;5024680;28;20475;-74
2024/03/02 14:09:28;;;;;;;16.17;15.57;;;;;;;;;;5026948;28;20455;-74
2024/03/02 14:11:55;;;;;;;16.13;15.53;;;;;;;;;;5022043;28;20464;-76
2024/03/02 14:14:22;;;;;;;15.57;15.07;;;;;;;;;;5025413;28;20472;-76
2024/03/02 14:16:49;;;;;;;15.13;14.63;;;;;;;;;;5026275;28;20961;-74
2024/03/02 14:19:18;;;;;;;15.00;14.50;;;;;;;;;;5019844;28;20989;-75
2024/03/02 14:21:47;;;;;;;15.63;15.13;;;;;;;;;;5023337;28;20472;-74
2024/03/02 14:24:14;;;;;;;14.93;14.43;;;;;;;;;;5022620;28;20517;-74